createdAt,value
2018-06-19T00:00:37.396Z,98827.34
2018-06-19T00:03:06.137Z,98835.37
2018-06-19T00:05:34.596Z,98830.92
2018-06-19T00:08:03.420Z,98838.56
2018-06-19T00:10:32.717Z,98831.87
2018-06-19T00:13:01.119Z,98835.80
2018-06-19T00:15:29.656Z,98834.72
2018-06-19T00:18:10.152Z,98833.50
2018-06-19T00:20:38.622Z,98824.98
2018-06-19T00:23:07.080Z,98830.66
2018-06-19T00:25:35.672Z,98832.80
2018-06-19T00:28:04.173Z,98827.19
2018-06-19T00:30:32.596Z,98833.88
2018-06-19T00:33:01.012Z,98830.03
2018-06-19T00:35:29.460Z,98834.66
2018-06-19T00:37:57.868Z,98833.48
2018-06-19T00:40:26.270Z,98833.72
2018-06-19T00:42:54.739Z,98824.20
2018-06-19T00:45:23.204Z,98828.86
2018-06-19T00:47:51.952Z,98828.64
2018-06-19T00:50:20.399Z,98838.38
2018-06-19T00:52:48.866Z,98837.89
2018-06-19T00:55:17.524Z,98841.77
2018-06-19T00:57:47.108Z,98841.51
2018-06-19T01:00:15.539Z,98844.48
2018-06-19T01:02:44.183Z,98844.59
2018-06-19T01:05:12.630Z,98838.48
2018-06-19T01:07:41.303Z,98839.22
2018-06-19T01:10:09.787Z,98837.30
2018-06-19T01:12:38.200Z,98841.77
2018-06-19T01:15:06.647Z,98845.75
2018-06-19T01:17:35.071Z,98841.63
2018-06-19T01:20:05.426Z,98844.98
2018-06-19T01:22:33.883Z,98841.71
2018-06-19T01:25:02.283Z,98844.59
2018-06-19T01:27:30.715Z,98847.28
2018-06-19T01:29:59.308Z,98834.17
2018-06-19T01:32:27.767Z,98840.67
2018-06-19T01:34:56.180Z,98839.05
2018-06-19T01:37:24.887Z,98844.09
2018-06-19T01:39:53.359Z,98844.10
2018-06-19T01:42:21.802Z,98843.14
2018-06-19T01:44:50.269Z,98809.48
2018-06-19T01:47:18.704Z,98837.53
2018-06-19T01:49:47.171Z,98840.95
2018-06-19T01:52:15.812Z,98837.45
2018-06-19T01:54:44.241Z,98835.08
2018-06-19T01:57:12.689Z,98837.61
2018-06-19T01:59:41.176Z,98844.23
2018-06-19T02:02:09.898Z,98833.88
2018-06-19T02:04:38.321Z,98837.30
2018-06-19T02:07:06.942Z,98838.36
2018-06-19T02:09:35.390Z,98842.92
2018-06-19T02:12:03.836Z,98835.70
2018-06-19T02:14:32.290Z,98836.91
2018-06-19T02:17:00.724Z,98845.11
2018-06-19T02:19:29.194Z,98840.28
2018-06-19T02:21:57.704Z,98835.37
2018-06-19T02:24:26.136Z,98842.00
2018-06-19T02:26:54.639Z,98850.30
2018-06-19T02:29:23.072Z,98850.30
2018-06-19T02:31:51.524Z,98859.95
2018-06-19T02:34:19.953Z,98859.20
2018-06-19T02:36:48.359Z,98860.89
2018-06-19T02:39:16.820Z,98862.45
2018-06-19T02:41:45.319Z,98866.05
2018-06-19T02:44:13.786Z,98862.58
2018-06-19T02:46:42.262Z,98867.27
2018-06-19T02:49:10.735Z,98870.63
2018-06-19T02:51:39.179Z,98868.16
2018-06-19T02:54:07.601Z,98878.22
2018-06-19T02:56:36.072Z,98872.81
2018-06-19T02:59:04.557Z,98875.84
2018-06-19T03:01:33.084Z,98873.43
2018-06-19T03:04:01.587Z,98878.11
2018-06-19T03:06:30.040Z,98873.67
2018-06-19T03:08:58.510Z,98871.49
2018-06-19T03:11:27.083Z,98871.25
2018-06-19T03:13:55.920Z,98877.09
2018-06-19T03:16:24.340Z,98872.08
2018-06-19T03:18:53.120Z,98877.34
2018-06-19T03:21:21.555Z,98882.29
2018-06-19T03:23:49.989Z,98886.52
2018-06-19T03:26:18.449Z,98885.00
2018-06-19T03:28:46.867Z,98888.59
2018-06-19T03:31:15.301Z,98892.45
2018-06-19T03:33:43.771Z,98897.98
2018-06-19T03:36:12.226Z,98901.72
2018-06-19T03:38:40.703Z,98909.63
2018-06-19T03:41:09.152Z,98909.75
2018-06-19T03:43:37.593Z,98906.75
2018-06-19T03:46:06.594Z,98917.59
2018-06-19T03:48:35.051Z,98913.98
2018-06-19T03:51:03.459Z,98922.97
2018-06-19T03:53:31.896Z,98918.54
2018-06-19T03:56:00.460Z,98922.19
2018-06-19T03:58:29.094Z,98916.77
2018-06-19T04:00:57.531Z,98919.55
2018-06-19T04:03:26.201Z,98918.22
2018-06-19T04:05:54.855Z,98925.45
2018-06-19T04:08:23.331Z,98928.81
2018-06-19T04:10:51.782Z,98924.84
2018-06-19T04:13:20.338Z,98917.15
2018-06-19T04:15:48.939Z,98922.58
2018-06-19T04:18:17.370Z,98922.82
2018-06-19T04:20:45.825Z,98927.98
2018-06-19T04:23:14.290Z,98934.85
2018-06-19T04:25:42.730Z,98935.24
2018-06-19T04:28:12.087Z,98938.84
2018-06-19T04:30:40.773Z,98929.57
2018-06-19T04:33:09.279Z,98933.00
2018-06-19T04:35:38.588Z,98938.77
2018-06-19T04:38:07.009Z,98942.94
2018-06-19T04:40:35.461Z,98933.30
2018-06-19T04:43:03.959Z,98945.39
2018-06-19T04:45:32.370Z,98938.51
2018-06-19T04:48:00.774Z,98933.31
2018-06-19T04:50:29.223Z,98942.66
2018-06-19T04:52:57.635Z,98940.83
2018-06-19T04:55:26.102Z,98948.94
2018-06-19T04:57:54.568Z,98953.20
2018-06-19T05:00:23.004Z,98947.33
2018-06-19T05:02:51.445Z,98955.15
2018-06-19T05:05:19.859Z,98955.30
2018-06-19T05:07:48.288Z,98956.45
2018-06-19T05:10:16.787Z,98949.97
2018-06-19T05:12:45.198Z,98958.84
2018-06-19T05:15:13.728Z,98951.17
2018-06-19T05:17:42.157Z,98962.72
2018-06-19T05:20:10.642Z,98961.17
2018-06-19T05:22:39.142Z,98962.30
2018-06-19T05:25:07.688Z,98967.34
2018-06-19T05:27:36.116Z,98962.31
2018-06-19T05:30:04.623Z,98963.63
2018-06-19T05:32:33.088Z,98973.27
2018-06-19T05:35:01.580Z,98965.97
2018-06-19T05:37:29.944Z,98971.14
2018-06-19T05:39:58.381Z,98969.02
2018-06-19T05:42:26.780Z,98974.94
2018-06-19T05:44:55.316Z,98975.02
2018-06-19T05:47:23.715Z,98980.99
2018-06-19T05:49:52.174Z,98979.46
2018-06-19T05:52:20.631Z,98984.88
2018-06-19T05:54:49.160Z,98976.06
2018-06-19T05:57:17.589Z,98981.70
2018-06-19T05:59:46.245Z,98985.45
2018-06-19T06:02:14.967Z,98980.27
2018-06-19T06:04:43.394Z,98991.97
2018-06-19T06:07:11.843Z,98993.08
2018-06-19T06:09:40.303Z,98996.22
2018-06-19T06:12:08.728Z,98993.34
2018-06-19T06:14:37.164Z,99002.56
2018-06-19T06:17:05.565Z,99002.39
2018-06-19T06:19:34.016Z,99005.63
2018-06-19T06:22:02.629Z,99005.80
2018-06-19T06:24:31.064Z,99006.28
2018-06-19T06:26:59.495Z,99011.25
2018-06-19T06:29:27.896Z,99015.20
2018-06-19T06:31:56.361Z,99015.60
2018-06-19T06:34:24.956Z,99013.08
2018-06-19T06:36:53.372Z,99007.98
2018-06-19T06:39:22.020Z,99003.84
2018-06-19T06:41:50.489Z,99004.97
2018-06-19T06:44:19.139Z,99009.27
2018-06-19T06:46:47.575Z,99015.34
2018-06-19T06:49:15.994Z,99021.38
2018-06-19T06:51:44.411Z,99018.09
2018-06-19T06:54:12.819Z,99014.83
2018-06-19T06:56:41.256Z,99015.28
2018-06-19T06:59:09.697Z,99019.30
2018-06-19T07:01:38.235Z,99023.84
2018-06-19T07:04:06.960Z,99025.17
2018-06-19T07:06:35.416Z,99025.87
2018-06-19T07:09:04.887Z,99021.41
2018-06-19T07:11:33.332Z,99023.59
2018-06-19T07:14:01.766Z,99021.49
2018-06-19T07:16:30.195Z,99028.73
2018-06-19T07:18:58.870Z,99029.48
2018-06-19T07:21:27.821Z,99022.34
2018-06-19T07:23:56.689Z,99020.95
2018-06-19T07:26:25.154Z,99028.95
2018-06-19T07:28:53.576Z,99014.00
2018-06-19T07:31:22.207Z,99014.73
2018-06-19T07:33:50.644Z,99013.23
2018-06-19T07:36:19.127Z,99024.59
2018-06-19T07:38:47.588Z,99020.47
2018-06-19T07:41:16.001Z,99015.53
2018-06-19T07:43:44.513Z,99018.87
2018-06-19T07:46:12.892Z,99014.95
2018-06-19T07:48:41.319Z,99016.79
2018-06-19T07:51:10.056Z,99015.04
2018-06-19T07:53:38.514Z,99021.50
2018-06-19T07:56:06.896Z,99016.46
2018-06-19T07:58:35.350Z,99019.06
2018-06-19T08:01:03.781Z,99021.48
2018-06-19T08:03:32.223Z,99025.30
2018-06-19T08:06:00.621Z,99009.63
2018-06-19T08:08:29.115Z,99012.83
2018-06-19T08:10:57.863Z,99008.00
2018-06-19T08:13:26.274Z,99018.56
2018-06-19T08:15:54.748Z,99017.27
2018-06-19T08:18:23.147Z,99020.92
2018-06-19T08:20:51.583Z,99014.76
2018-06-19T08:23:20.004Z,99018.81
2018-06-19T08:25:48.483Z,99005.73
2018-06-19T08:28:17.200Z,99015.73
2018-06-19T08:30:45.767Z,99014.31
2018-06-19T08:33:14.244Z,99016.95
2018-06-19T08:35:43.679Z,99018.28
2018-06-19T08:38:12.215Z,99015.45
2018-06-19T08:40:40.625Z,99020.78
2018-06-19T08:43:09.257Z,99018.02
2018-06-19T08:45:37.730Z,99021.19
2018-06-19T08:48:06.147Z,99014.66
2018-06-19T08:50:34.738Z,99013.08
2018-06-19T08:53:03.168Z,99009.39
2018-06-19T08:55:31.791Z,99007.09
2018-06-19T08:58:00.244Z,99001.39
2018-06-19T09:00:28.682Z,98999.61
2018-06-19T09:02:57.103Z,99000.48
2018-06-19T09:05:25.660Z,99000.45
2018-06-19T09:07:54.124Z,99004.52
2018-06-19T09:13:21.670Z,98991.57
2018-06-19T09:15:50.084Z,98999.43
2018-06-19T09:18:18.507Z,98996.28
2018-06-19T09:20:46.959Z,98994.61
2018-06-19T09:23:15.640Z,98996.95
2018-06-19T09:25:44.120Z,98995.78
2018-06-19T09:28:12.535Z,98996.74
2018-06-19T09:30:41.000Z,98986.55
2018-06-19T09:33:09.433Z,98987.95
2018-06-19T09:35:37.860Z,98999.05
2018-06-19T09:38:06.651Z,98993.38
2018-06-19T09:40:35.059Z,98993.22
2018-06-19T09:43:03.507Z,98999.02
2018-06-19T09:45:31.931Z,99002.09
2018-06-19T09:48:00.336Z,99006.70
2018-06-19T09:50:29.060Z,98991.38
2018-06-19T09:52:57.507Z,98994.75
2018-06-19T09:55:26.147Z,98992.07
2018-06-19T09:57:54.632Z,98984.16
2018-06-19T10:00:28.156Z,98990.95
2018-06-19T10:02:56.629Z,98987.11
2018-06-19T10:05:25.048Z,98990.14
2018-06-19T10:07:53.471Z,98987.16
2018-06-19T10:10:21.899Z,98981.92
2018-06-19T10:12:50.324Z,98979.83
2018-06-19T10:15:18.752Z,98982.96
2018-06-19T10:17:47.213Z,98966.34
2018-06-19T10:20:15.627Z,98968.45
2018-06-19T10:22:44.016Z,98972.98
2018-06-19T10:25:12.443Z,98972.17
2018-06-19T10:27:40.867Z,98967.29
2018-06-19T10:30:09.310Z,98980.48
2018-06-19T10:32:37.740Z,98972.97
2018-06-19T10:35:06.335Z,98976.41
2018-06-19T10:37:34.795Z,98970.54
2018-06-19T10:40:03.496Z,98965.33
2018-06-19T10:42:31.924Z,98969.58
2018-06-19T10:45:00.494Z,98974.38
2018-06-19T10:47:29.157Z,98971.52
2018-06-19T10:49:57.652Z,98962.36
2018-06-19T10:52:26.071Z,98954.34
2018-06-19T10:54:54.839Z,98970.45
2018-06-19T10:57:23.231Z,98964.44
2018-06-19T10:59:51.750Z,98969.40
2018-06-19T11:02:20.163Z,98964.03
2018-06-19T11:04:49.070Z,98967.47
2018-06-19T11:07:21.817Z,98963.73
2018-06-19T11:09:50.224Z,98967.66
2018-06-19T11:13:21.442Z,98964.75
2018-06-19T11:15:49.856Z,98960.09
2018-06-19T11:18:18.299Z,98955.88
2018-06-19T11:20:46.755Z,98945.72
2018-06-19T11:23:15.384Z,98951.73
2018-06-19T11:25:43.852Z,98952.65
2018-06-19T11:28:12.266Z,98948.38
2018-06-19T11:30:40.711Z,98947.62
2018-06-19T11:33:09.166Z,98950.99
2018-06-19T11:35:37.638Z,98951.92
2018-06-19T11:38:06.299Z,98944.05
2018-06-19T11:40:34.763Z,98946.11
2018-06-19T11:43:03.200Z,98955.21
2018-06-19T11:45:31.612Z,98954.06
2018-06-19T11:48:00.038Z,98953.80
2018-06-19T11:50:28.475Z,98959.27
2018-06-19T11:52:56.900Z,98944.67
2018-06-19T11:55:25.351Z,98943.95
2018-06-19T11:57:53.757Z,98937.56
2018-06-19T12:00:22.211Z,98954.47
2018-06-19T12:02:50.621Z,98935.36
2018-06-19T12:05:19.335Z,98934.48
2018-06-19T12:07:48.934Z,98935.34
2018-06-19T12:10:17.360Z,98939.08
2018-06-19T12:12:45.920Z,98948.59
2018-06-19T12:15:14.360Z,98929.77
2018-06-19T12:17:42.783Z,98932.78
2018-06-19T12:20:11.679Z,98934.98
2018-06-19T12:22:40.081Z,98926.55
2018-06-19T12:25:08.558Z,98928.22
2018-06-19T12:27:37.005Z,98936.13
2018-06-19T12:30:05.695Z,98918.68
2018-06-19T12:32:34.362Z,98932.97
2018-06-19T12:35:02.790Z,98935.69
2018-06-19T12:37:31.210Z,98933.14
2018-06-19T12:39:59.857Z,98942.47
2018-06-19T12:42:28.310Z,98942.67
2018-06-19T12:44:56.724Z,98937.19
2018-06-19T12:47:25.188Z,98938.27
2018-06-19T12:50:32.280Z,98928.77
2018-06-19T12:53:12.848Z,98920.52
2018-06-19T12:55:52.716Z,98923.62
2018-06-19T12:58:21.623Z,98915.70
2018-06-19T13:00:50.091Z,98929.61
2018-06-19T13:03:29.653Z,98924.91
2018-06-19T13:06:09.691Z,98928.09
2018-06-19T13:08:38.152Z,98917.28
2018-06-19T13:11:07.169Z,98917.72
2018-06-19T13:13:46.599Z,98919.02
2018-06-19T13:16:26.173Z,98918.64
2018-06-19T13:19:06.135Z,98930.27
2018-06-19T13:21:34.775Z,98923.09
2018-06-19T13:24:03.256Z,98912.67
2018-06-19T13:26:31.689Z,98925.93
2018-06-19T13:29:36.995Z,98927.48
2018-06-19T13:32:05.571Z,98922.83
2018-06-19T13:34:35.205Z,98917.56
2018-06-19T13:37:04.032Z,98929.00
2018-06-19T13:39:32.543Z,98911.81
2018-06-19T13:42:12.354Z,98921.56
2018-06-19T13:45:05.294Z,98912.77
2018-06-19T13:47:33.771Z,98913.16
2018-06-19T13:50:02.205Z,98903.87
2018-06-19T13:52:30.696Z,98902.58
2018-06-19T13:57:24.051Z,98908.03
2018-06-19T13:59:52.490Z,98896.73
2018-06-19T14:02:21.302Z,98891.37
2018-06-19T14:04:49.903Z,98880.81
2018-06-19T14:07:18.373Z,98900.18
2018-06-19T14:09:58.032Z,98886.10
2018-06-19T14:13:02.997Z,98905.38
2018-06-19T14:15:33.832Z,98888.00
2018-06-19T14:18:02.241Z,98878.58
2018-06-19T14:20:30.949Z,98887.00
2018-06-19T14:22:59.629Z,98880.96
2018-06-19T14:25:28.281Z,98878.61
2018-06-19T14:27:56.744Z,98891.81
2018-06-19T14:30:25.195Z,98885.06
2018-06-19T14:32:53.633Z,98884.41
2018-06-19T14:35:22.055Z,98874.86
2018-06-19T14:37:50.544Z,98874.12
2018-06-19T14:40:18.963Z,98870.30
2018-06-19T14:42:47.423Z,98881.09
2018-06-19T14:45:16.003Z,98874.06
2018-06-19T14:47:44.919Z,98871.76
2018-06-19T14:50:13.904Z,98869.69
2018-06-19T14:52:42.666Z,98878.46
2018-06-19T14:55:11.829Z,98889.02
2018-06-19T14:57:40.866Z,98876.92
2018-06-19T15:00:10.235Z,98879.39
2018-06-19T15:02:38.683Z,98869.09
2018-06-19T15:05:07.700Z,98877.01
2018-06-19T15:07:41.808Z,98880.43
2018-06-19T15:10:10.364Z,98871.50
2018-06-19T15:12:38.851Z,98870.22
2018-06-19T15:15:07.333Z,98873.39
2018-06-19T15:17:35.794Z,98876.48
2018-06-19T15:20:04.293Z,98880.27
2018-06-19T15:22:32.746Z,98868.95
2018-06-19T15:25:03.444Z,98868.98
2018-06-19T15:27:32.563Z,98868.54
2018-06-19T15:30:01.277Z,98872.59
2018-06-19T15:32:29.688Z,98861.16
2018-06-19T15:34:58.174Z,98867.22
2018-06-19T15:37:26.604Z,98875.57
2018-06-19T15:39:55.059Z,98863.87
2018-06-19T15:42:23.446Z,98865.43
2018-06-19T15:44:51.906Z,98873.73
2018-06-19T15:47:20.319Z,98870.33
2018-06-19T15:49:48.771Z,98874.30
2018-06-19T15:52:17.176Z,98872.66
2018-06-19T15:54:45.563Z,98871.92
2018-06-19T15:57:14.028Z,98857.94
2018-06-19T15:59:42.475Z,98885.71
2018-06-19T16:02:10.906Z,98867.11
2018-06-19T16:04:39.515Z,98870.59
2018-06-19T16:07:43.320Z,98860.73
2018-06-19T16:10:11.760Z,98859.45
2018-06-19T16:12:40.389Z,98867.55
2018-06-19T16:15:08.794Z,98867.51
2018-06-19T16:17:37.938Z,98867.75
2018-06-19T16:20:06.339Z,98867.66
2018-06-19T16:22:34.807Z,98866.50
2018-06-19T16:25:03.283Z,98863.63
2018-06-19T16:27:31.790Z,98863.98
2018-06-19T16:30:00.178Z,98862.40
2018-06-19T16:32:28.915Z,98866.19
2018-06-19T16:34:57.350Z,98869.03
2018-06-19T16:37:25.795Z,98871.55
2018-06-19T16:39:54.260Z,98867.14
2018-06-19T16:42:22.729Z,98864.98
2018-06-19T16:44:51.160Z,98865.57
2018-06-19T16:47:19.631Z,98873.19
2018-06-19T16:49:48.073Z,98866.81
2018-06-19T16:52:16.565Z,98872.23
2018-06-19T16:54:45.319Z,98868.15
2018-06-19T16:57:13.981Z,98864.14
2018-06-19T16:59:42.540Z,98869.48
2018-06-19T17:02:11.031Z,98876.75
2018-06-19T17:04:39.469Z,98946.95
2018-06-19T17:07:07.872Z,98936.28
2018-06-19T17:09:36.357Z,98924.70
2018-06-19T17:12:04.792Z,98905.81
2018-06-19T17:14:33.254Z,98893.88
2018-06-19T17:17:01.900Z,98894.48
2018-06-19T17:19:30.340Z,98886.73
2018-06-19T17:21:58.797Z,98874.72
2018-06-19T17:24:27.534Z,98883.60
2018-06-19T17:26:56.015Z,98884.30
2018-06-19T17:29:24.435Z,98875.41
2018-06-19T17:31:52.891Z,98876.12
2018-06-19T17:34:21.350Z,98874.36
2018-06-19T17:36:50.543Z,98871.16
2018-06-19T17:39:18.967Z,98874.80
2018-06-19T17:41:47.374Z,98878.60
2018-06-19T17:44:15.782Z,98877.73
2018-06-19T17:46:44.202Z,98881.77
2018-06-19T17:49:12.935Z,98881.20
2018-06-19T17:51:41.547Z,98887.70
2018-06-19T17:54:09.965Z,98883.16
2018-06-19T17:56:38.392Z,98887.98
2018-06-19T17:59:06.843Z,98883.75
2018-06-19T18:01:35.273Z,98884.17
2018-06-19T18:04:03.714Z,98884.44
2018-06-19T18:06:32.104Z,98886.89
2018-06-19T18:09:00.526Z,98886.78
2018-06-19T18:11:28.961Z,98886.25
2018-06-19T18:13:57.501Z,98884.25
2018-06-19T18:16:25.943Z,98887.98
2018-06-19T18:18:54.358Z,98890.66
2018-06-19T18:21:22.841Z,98890.47
2018-06-19T18:23:51.331Z,98892.53
2018-06-19T18:26:19.784Z,98895.53
2018-06-19T18:28:48.215Z,98892.09
2018-06-19T18:31:16.791Z,98895.79
2018-06-19T18:33:45.221Z,98896.79
2018-06-19T18:36:13.724Z,98899.48
2018-06-19T18:38:42.547Z,98898.13
2018-06-19T18:41:11.077Z,98897.81
2018-06-19T18:43:39.446Z,98894.80
2018-06-19T18:46:07.859Z,98899.67
2018-06-19T18:48:36.383Z,98901.17
2018-06-19T18:51:04.808Z,98908.39
2018-06-19T18:53:33.219Z,98900.84
2018-06-19T18:56:01.633Z,98909.54
2018-06-19T18:58:30.084Z,98906.70
2018-06-19T19:00:58.502Z,98912.22
2018-06-19T19:03:26.949Z,98914.57
2018-06-19T19:05:55.415Z,98910.89
2018-06-19T19:08:24.899Z,98915.57
2018-06-19T19:10:55.423Z,98911.38
2018-06-19T19:13:25.217Z,98919.54
2018-06-19T19:15:58.855Z,98924.91
2018-06-19T19:18:32.559Z,98932.25
2018-06-19T19:21:01.879Z,98926.91
2018-06-19T19:23:30.872Z,98929.92
2018-06-19T19:25:59.364Z,98936.61
2018-06-19T19:28:33.025Z,98932.25
2018-06-19T19:31:01.440Z,98939.82
2018-06-19T19:33:29.904Z,98934.77
2018-06-19T19:35:58.397Z,98944.70
2018-06-19T19:38:32.056Z,98947.17
2018-06-19T19:41:00.497Z,98938.29
2018-06-19T19:43:29.018Z,98955.20
2018-06-19T19:45:57.449Z,98947.33
2018-06-19T19:48:31.170Z,98951.17
2018-06-19T19:50:59.640Z,98953.19
2018-06-19T19:53:28.371Z,98952.02
2018-06-19T19:56:02.360Z,98948.69
2018-06-19T19:58:36.220Z,98948.84
2018-06-19T20:01:04.681Z,98950.67
2018-06-19T20:03:33.255Z,98950.85
2018-06-19T20:06:01.753Z,98952.02
2018-06-19T20:08:30.177Z,98949.69
2018-06-19T20:10:58.595Z,98948.09
2018-06-19T20:13:27.017Z,98954.38
2018-06-19T20:15:55.433Z,98958.54
2018-06-19T20:18:23.858Z,98952.64
2018-06-19T20:20:52.315Z,98961.70
2018-06-19T20:23:20.763Z,98954.30
2018-06-19T20:25:49.175Z,98961.03
2018-06-19T20:28:17.956Z,98959.81
2018-06-19T20:30:46.419Z,98958.97
2018-06-19T20:33:14.824Z,98963.73
2018-06-19T20:35:43.302Z,98965.28
2018-06-19T20:38:11.790Z,98966.63
2018-06-19T20:40:40.267Z,98970.57
2018-06-19T20:43:08.730Z,98972.89
2018-06-19T20:45:37.115Z,98974.94
2018-06-19T20:48:05.699Z,98972.12
2018-06-19T20:50:34.359Z,98940.30
2018-06-19T20:53:02.732Z,98964.90
2018-06-19T20:55:31.189Z,98973.25
2018-06-19T20:57:59.636Z,98972.09
2018-06-19T21:00:28.391Z,98968.07
2018-06-19T21:02:56.809Z,98975.75
2018-06-19T21:05:25.267Z,98972.37
2018-06-19T21:08:29.833Z,98969.90
2018-06-19T21:10:58.235Z,98970.22
2018-06-19T21:13:26.631Z,98972.96
2018-06-19T21:15:55.039Z,98967.57
2018-06-19T21:18:23.486Z,98968.73
2018-06-19T21:20:52.123Z,98974.47
2018-06-19T21:23:20.536Z,98979.12
2018-06-19T21:25:48.973Z,98972.29
2018-06-19T21:28:17.399Z,98977.88
2018-06-19T21:30:45.844Z,98972.56
2018-06-19T21:33:14.310Z,98966.05
2018-06-19T21:35:42.756Z,98973.86
2018-06-19T21:38:11.428Z,98969.80
2018-06-19T21:40:39.870Z,98973.13
2018-06-19T21:43:08.685Z,98975.89
2018-06-19T21:45:37.086Z,98971.53
2018-06-19T21:48:05.524Z,98965.69
2018-06-19T21:50:33.942Z,98968.85
2018-06-19T21:53:02.335Z,98967.86
2018-06-19T21:55:30.798Z,98959.30
2018-06-19T22:00:26.655Z,98966.60
2018-06-19T22:02:55.199Z,98961.44
2018-06-19T22:05:23.651Z,98966.95
2018-06-19T22:07:52.077Z,98964.17
2018-06-19T22:10:20.483Z,98965.88
2018-06-19T22:12:48.851Z,98966.68
2018-06-19T22:15:17.464Z,98964.44
2018-06-19T22:17:45.902Z,98963.70
2018-06-19T22:20:14.355Z,98966.98
2018-06-19T22:22:42.763Z,98965.47
2018-06-19T22:25:11.163Z,98964.74
2018-06-19T22:27:39.579Z,98963.09
2018-06-19T22:30:08.005Z,98963.30
2018-06-19T22:32:36.441Z,98969.50
2018-06-19T22:35:04.892Z,98974.55
2018-06-19T22:37:33.324Z,98972.83
2018-06-19T22:40:01.740Z,98972.41
2018-06-19T22:42:30.163Z,98968.27
2018-06-19T22:44:58.764Z,98962.69
2018-06-19T22:47:27.169Z,98961.78
2018-06-19T22:49:55.594Z,98967.48
2018-06-19T22:52:24.305Z,98960.86
2018-06-19T22:54:53.175Z,98968.16
2018-06-19T22:57:21.609Z,98961.64
2018-06-19T22:59:50.167Z,98966.74
2018-06-19T23:02:18.604Z,98966.80
2018-06-19T23:04:47.027Z,98970.34
2018-06-19T23:07:15.496Z,98973.69
2018-06-19T23:09:44.017Z,98975.47
2018-06-19T23:12:12.409Z,98966.98
2018-06-19T23:14:41.088Z,98962.69
2018-06-19T23:17:09.731Z,98969.96
2018-06-19T23:19:38.160Z,98964.54
2018-06-19T23:22:06.829Z,98967.13
2018-06-19T23:24:35.245Z,98961.67
2018-06-19T23:27:03.675Z,98967.27
2018-06-19T23:29:32.119Z,98956.77
2018-06-19T23:32:00.703Z,98963.53
2018-06-19T23:34:29.355Z,98959.52
2018-06-19T23:36:57.792Z,98960.28
2018-06-19T23:39:26.427Z,98959.80
2018-06-19T23:41:54.851Z,98956.52
2018-06-19T23:44:23.266Z,98957.75
2018-06-19T23:46:51.728Z,98964.56
2018-06-19T23:49:20.203Z,98963.86
2018-06-19T23:51:48.632Z,98957.97
2018-06-19T23:54:17.299Z,98954.95
2018-06-19T23:56:45.780Z,98957.13
2018-06-19T23:59:14.211Z,98953.61
